Ballentine, South Carolina
Current Conditions -  °F | °C
As of 12:56 PM on Thursday 30 Oct 2014 (Local Time) from KCAE Reporting Station
Clear Clear  
Wind Chill: 69°   Ceiling: Unl
Heat Index: 69°   Visibility: 10mi
Dew Point: 41°   Wind: 8mph
Humidity: 36%   Direction: 20°NNE
Pressure: 30.02"   Gusts: NA
Location:  34.12°N, 81.24°W
Report Text: KCAE 301656Z 02007KT 10SM CLR 21/05 A3002 RMK AO2 SLP163 T02060050
Loading
Personal Weather Stations






























Interactive Weather Map
Tropical Storm Tracking
New forecast layout! Learn more

10-Day Weather Forecast

Advertisements
Track Severe Weather on mobile